createdAt,value
2023-08-29T01:22:03.459Z,95970.69
2023-08-29T01:24:39.396Z,95967.53
2023-08-29T01:27:09.878Z,95969.84
2023-08-29T01:29:47.533Z,95971.69
2023-08-29T01:32:17.045Z,95974.66
2023-08-29T01:34:45.594Z,95967.66
2023-08-29T01:37:13.911Z,95967.03
2023-08-29T01:39:42.199Z,95968.34
2023-08-29T01:42:12.204Z,95970.31
2023-08-29T01:49:37.388Z,95967.38
2023-08-29T01:52:07.605Z,95959.53
2023-08-29T01:54:35.718Z,95956.75
2023-08-29T01:57:05.406Z,95949.59
2023-08-29T01:59:35.470Z,95950.28
2023-08-29T02:02:04.330Z,95957.72
2023-08-29T02:04:32.338Z,95954.91
2023-08-29T02:07:00.287Z,95953.25
2023-08-29T02:09:28.202Z,95955.91
2023-08-29T02:11:56.611Z,95951.25
2023-08-29T02:14:26.847Z,95956.56
2023-08-29T02:16:56.280Z,95953.75
2023-08-29T02:19:24.257Z,95954.09
2023-08-29T02:21:52.136Z,95949.59
2023-08-29T02:24:20.398Z,95954.09
2023-08-29T02:26:49.095Z,95943.28
2023-08-29T02:29:19.098Z,95939.63
2023-08-29T02:31:47.556Z,95944.91
2023-08-29T02:34:18.029Z,95939.63
2023-08-29T02:36:46.951Z,95945.44
2023-08-29T02:39:14.842Z,95942.63
2023-08-29T02:41:42.740Z,95935.63
2023-08-29T02:44:10.821Z,95937.47
2023-08-29T02:46:40.422Z,95933.31
2023-08-29T02:49:08.406Z,95934.66
2023-08-29T02:51:37.715Z,95932.28
2023-08-29T02:54:07.361Z,95921.66
2023-08-29T02:56:35.439Z,95922.19
2023-08-29T02:59:03.341Z,95922.88
2023-08-29T03:01:31.323Z,95920.66
2023-08-29T03:03:59.728Z,95925.00
2023-08-29T03:06:27.606Z,95932.28
2023-08-29T03:08:57.430Z,95922.69
2023-08-29T03:11:25.331Z,95927.19
2023-08-29T03:13:53.237Z,95929.81
2023-08-29T03:16:21.606Z,95919.84
2023-08-29T03:18:51.410Z,95917.03
2023-08-29T03:21:20.343Z,95921.84
2023-08-29T03:23:48.350Z,95910.22
2023-08-29T03:26:18.241Z,95909.22
2023-08-29T03:28:46.775Z,95912.38
2023-08-29T03:31:16.554Z,95908.22
2023-08-29T03:33:46.335Z,95908.22
2023-08-29T03:36:15.972Z,95907.41
2023-08-29T03:38:44.471Z,95909.38
2023-08-29T03:41:12.552Z,95908.22
2023-08-29T03:43:41.790Z,95912.53
2023-08-29T03:46:11.327Z,95907.22
2023-08-29T03:48:40.203Z,95913.03
2023-08-29T03:51:08.538Z,95908.72
2023-08-29T03:53:38.307Z,95911.38
2023-08-29T03:56:11.627Z,95908.38
2023-08-29T03:58:41.016Z,95910.03
2023-08-29T04:01:12.858Z,95904.03
2023-08-29T04:03:41.110Z,95911.69
2023-08-29T04:06:09.220Z,95899.72
2023-08-29T04:08:37.147Z,95909.53
2023-08-29T04:11:05.289Z,95911.38
2023-08-29T04:13:34.860Z,95901.38
2023-08-29T04:16:05.123Z,95912.66
2023-08-29T04:18:33.262Z,95901.56
2023-08-29T04:21:03.230Z,95906.00
2023-08-29T04:23:31.177Z,95899.03
2023-08-29T04:26:00.626Z,95902.72
2023-08-29T04:28:28.521Z,95896.38
2023-08-29T04:30:56.458Z,95895.56
2023-08-29T04:33:26.831Z,95889.09
2023-08-29T04:35:55.937Z,95896.38
2023-08-29T04:38:23.720Z,95893.25
2023-08-29T04:40:54.919Z,95898.03
2023-08-29T04:43:23.252Z,95895.22
2023-08-29T04:45:52.247Z,95899.72
2023-08-29T04:48:20.532Z,95899.72
2023-08-29T04:50:50.799Z,95907.38
2023-08-29T04:53:19.224Z,95905.38
2023-08-29T04:55:47.389Z,95907.84
2023-08-29T04:58:15.646Z,95906.16
2023-08-29T05:00:43.519Z,95905.16
2023-08-29T05:03:12.132Z,95902.00
2023-08-29T05:05:40.649Z,95906.34
2023-08-29T05:08:12.018Z,95900.34
2023-08-29T05:10:42.321Z,95897.50
2023-08-29T05:13:10.231Z,95904.97
2023-08-29T05:15:42.140Z,95905.81
2023-08-29T05:18:11.900Z,95903.31
2023-08-29T05:20:39.988Z,95901.84
2023-08-29T05:23:07.822Z,95904.31
2023-08-29T05:25:38.642Z,95897.88
2023-08-29T05:28:08.732Z,95904.50
2023-08-29T05:30:37.077Z,95900.66
2023-08-29T05:33:05.200Z,95906.97
2023-08-29T05:35:33.368Z,95906.00
2023-08-29T05:38:01.257Z,95906.00
2023-08-29T05:40:29.192Z,95900.16
2023-08-29T05:42:58.418Z,95901.03
2023-08-29T05:45:26.273Z,95904.84
2023-08-29T05:47:54.269Z,95910.50
2023-08-29T05:50:22.162Z,95911.66
2023-08-29T05:52:50.139Z,95911.31
2023-08-29T05:55:18.512Z,95907.69
2023-08-29T05:57:47.012Z,95915.66
2023-08-29T06:00:20.255Z,95912.78
2023-08-29T06:02:49.658Z,95914.78
2023-08-29T06:05:18.477Z,95907.03
2023-08-29T06:07:47.541Z,95911.31
2023-08-29T06:10:15.738Z,95910.50
2023-08-29T06:12:43.624Z,95910.69
2023-08-29T06:15:11.984Z,95919.16
2023-08-29T06:17:42.129Z,95913.97
2023-08-29T06:20:12.350Z,95919.28
2023-08-29T06:22:41.052Z,95931.75
2023-08-29T06:25:10.717Z,95921.47
2023-08-29T06:27:38.857Z,95920.44
2023-08-29T06:30:08.335Z,95924.13
2023-08-29T06:32:36.534Z,95925.06
2023-08-29T06:35:08.761Z,95926.56
2023-08-29T06:37:37.444Z,95936.53
2023-08-29T06:40:06.977Z,95923.78
2023-08-29T06:42:34.850Z,95932.91
2023-08-29T06:45:02.707Z,95932.56
2023-08-29T06:47:30.661Z,95937.88
2023-08-29T06:49:58.593Z,95946.38
2023-08-29T06:52:28.609Z,95944.56
2023-08-29T06:54:56.560Z,95939.94
2023-08-29T06:57:24.398Z,95949.41
2023-08-29T06:59:52.249Z,95946.41
2023-08-29T07:02:20.119Z,95955.53
2023-08-29T07:04:48.538Z,95951.56
2023-08-29T07:07:16.914Z,95961.53
2023-08-29T07:09:46.054Z,95963.34
2023-08-29T07:12:13.896Z,95971.19
2023-08-29T07:14:41.769Z,95970.84
2023-08-29T07:17:10.860Z,95976.78
2023-08-29T07:19:39.752Z,95977.66
2023-08-29T07:22:22.768Z,95981.47
2023-08-29T07:24:53.995Z,95990.25
2023-08-29T07:27:21.810Z,95991.09
2023-08-29T07:29:49.805Z,95986.59
2023-08-29T07:32:17.774Z,95986.41
2023-08-29T07:34:45.616Z,95986.78
2023-08-29T07:37:13.529Z,95987.59
2023-08-29T07:39:41.467Z,95994.56
2023-08-29T07:42:11.114Z,95998.91
2023-08-29T07:44:38.981Z,95997.56
2023-08-29T07:47:14.412Z,96002.06
2023-08-29T07:49:43.368Z,96001.44
2023-08-29T07:52:11.885Z,96005.41
2023-08-29T07:54:40.809Z,96004.09
2023-08-29T07:57:10.981Z,96004.25
2023-08-29T07:59:38.909Z,96000.44
2023-08-29T08:02:07.183Z,96008.28
2023-08-29T08:04:35.142Z,96016.72
2023-08-29T08:07:04.058Z,96012.09
2023-08-29T08:09:31.901Z,96006.78
2023-08-29T08:11:59.790Z,96005.13
2023-08-29T08:14:28.986Z,96008.00
2023-08-29T08:16:56.983Z,96008.97
2023-08-29T08:19:25.509Z,96016.94
2023-08-29T08:21:53.758Z,96012.81
2023-08-29T08:24:23.210Z,96006.69
2023-08-29T08:26:51.363Z,96018.16
2023-08-29T08:29:19.230Z,96017.47
2023-08-29T08:31:49.884Z,96020.31
2023-08-29T08:34:17.804Z,96014.47
2023-08-29T08:36:46.288Z,96019.50
2023-08-29T08:39:14.187Z,96013.50
2023-08-29T08:41:42.521Z,96016.16
2023-08-29T08:44:11.679Z,96020.97
2023-08-29T08:46:40.373Z,96023.81
2023-08-29T08:49:09.906Z,96025.50
2023-08-29T08:51:39.899Z,96023.13
2023-08-29T08:54:08.405Z,96028.16
2023-08-29T08:56:36.832Z,96020.53
2023-08-29T08:59:05.821Z,96019.84
2023-08-29T09:01:33.803Z,96024.00
2023-08-29T09:04:02.010Z,96022.88
2023-08-29T09:06:31.617Z,96028.88
2023-08-29T09:09:15.955Z,96018.88
2023-08-29T09:11:45.167Z,96035.25
2023-08-29T09:14:14.181Z,96027.59
2023-08-29T09:16:42.208Z,96033.44
2023-08-29T09:19:10.947Z,96022.97
2023-08-29T09:21:45.323Z,96021.63
2023-08-29T09:24:13.927Z,96029.81
2023-08-29T09:26:42.328Z,96030.97
2023-08-29T09:29:20.006Z,96029.97
2023-08-29T09:31:48.745Z,96029.13
2023-08-29T09:34:30.664Z,96029.66
2023-08-29T09:37:00.724Z,96026.16
2023-08-29T09:39:28.866Z,96031.97
2023-08-29T09:42:01.729Z,96030.97
2023-08-29T09:44:29.740Z,96039.28
2023-08-29T09:46:58.275Z,96031.63
2023-08-29T09:49:32.486Z,96037.78
2023-08-29T09:52:04.053Z,96035.97
2023-08-29T09:54:34.998Z,96030.16
2023-08-29T09:57:07.425Z,96029.13
2023-08-29T09:59:39.090Z,96035.28
2023-08-29T10:02:07.432Z,96036.16
2023-08-29T10:04:38.459Z,96038.63
2023-08-29T10:07:08.195Z,96040.97
2023-08-29T10:09:38.187Z,96046.94
2023-08-29T10:12:07.932Z,96041.47
2023-08-29T10:14:36.341Z,96038.16
2023-08-29T10:17:08.488Z,96033.13
2023-08-29T10:19:39.777Z,96032.63
2023-08-29T10:22:09.494Z,96035.97
2023-08-29T10:24:39.079Z,96038.63
2023-08-29T10:27:07.874Z,96035.28
2023-08-29T10:29:35.904Z,96029.66
2023-08-29T10:32:05.141Z,96031.31
2023-08-29T10:34:33.075Z,96034.66
2023-08-29T10:37:01.705Z,96032.81
2023-08-29T10:39:31.949Z,96041.31
2023-08-29T10:41:59.772Z,96032.00
2023-08-29T10:44:44.444Z,96032.31
2023-08-29T10:47:17.067Z,96033.16
2023-08-29T10:49:45.761Z,96028.81
2023-08-29T10:52:14.984Z,96030.31
2023-08-29T10:54:44.285Z,96028.34
2023-08-29T10:57:29.695Z,96029.31
2023-08-29T10:59:58.157Z,96034.78
2023-08-29T11:02:28.206Z,96031.41
2023-08-29T11:05:12.603Z,96022.41
2023-08-29T11:07:42.919Z,96020.28
2023-08-29T11:10:17.093Z,96013.75
2023-08-29T11:13:07.221Z,96014.28
2023-08-29T11:16:09.487Z,96015.91
2023-08-29T11:18:37.805Z,96011.59
2023-08-29T11:21:11.187Z,96018.25
2023-08-29T11:23:41.331Z,96018.94
2023-08-29T11:26:12.319Z,96018.41
2023-08-29T11:28:42.717Z,96013.25
2023-08-29T11:31:11.479Z,96013.09
2023-08-29T11:33:39.510Z,96012.22
2023-08-29T11:36:11.028Z,96002.22
2023-08-29T11:38:39.276Z,96004.22
2023-08-29T11:41:10.397Z,96005.84
2023-08-29T11:44:17.167Z,96002.72
2023-08-29T11:46:42.227Z,96012.56
2023-08-29T11:49:14.317Z,96011.25
2023-08-29T11:51:42.288Z,96012.88
2023-08-29T11:54:42.675Z,96010.88
2023-08-29T11:57:13.679Z,96012.56
2023-08-29T11:59:44.235Z,96021.91
2023-08-29T12:02:18.589Z,96023.06
2023-08-29T12:04:48.397Z,96012.25
2023-08-29T12:07:17.792Z,96011.75
2023-08-29T12:09:47.542Z,96009.09
2023-08-29T12:12:30.295Z,96018.59
2023-08-29T12:14:59.586Z,96024.25
2023-08-29T12:17:37.872Z,96022.44
2023-08-29T12:20:21.234Z,96026.78
2023-08-29T12:22:50.970Z,96019.94
2023-08-29T12:25:20.000Z,96019.94
2023-08-29T12:27:48.905Z,96028.25
2023-08-29T12:30:19.157Z,96025.75
2023-08-29T12:32:48.540Z,96031.06
2023-08-29T12:35:18.413Z,96031.91
2023-08-29T12:37:47.060Z,96026.94
2023-08-29T12:40:16.700Z,96029.13
2023-08-29T12:42:45.016Z,96036.94
2023-08-29T12:45:13.001Z,96031.78
2023-08-29T12:47:44.033Z,96026.56
2023-08-29T12:50:15.607Z,96027.75
2023-08-29T12:52:43.963Z,96026.44
2023-08-29T12:55:13.281Z,96030.09
2023-08-29T12:57:41.438Z,96031.78
2023-08-29T13:00:10.882Z,96033.09
2023-08-29T13:02:38.805Z,96034.44
2023-08-29T13:05:08.761Z,96031.44
2023-08-29T13:07:36.886Z,96023.25
2023-08-29T13:10:06.371Z,96023.91
2023-08-29T13:12:34.321Z,96026.56
2023-08-29T13:15:02.180Z,96027.44
2023-08-29T13:17:30.856Z,96020.44
2023-08-29T13:19:59.276Z,96017.78
2023-08-29T13:22:29.216Z,96009.25
2023-08-29T13:24:58.029Z,96018.09
2023-08-29T13:27:25.859Z,96009.59
2023-08-29T13:29:53.729Z,96012.63
2023-08-29T13:32:21.569Z,96009.44
2023-08-29T13:34:49.457Z,96014.44
2023-08-29T13:37:17.258Z,96011.44
2023-08-29T13:39:47.161Z,96009.94
2023-08-29T13:42:16.965Z,96011.59
2023-08-29T13:44:45.608Z,96002.28
2023-08-29T13:47:13.515Z,96004.28
2023-08-29T13:49:41.424Z,96002.28
2023-08-29T13:52:09.569Z,96014.63
2023-08-29T13:54:37.746Z,96009.59
2023-08-29T13:57:07.866Z,96009.25
2023-08-29T13:59:35.682Z,96007.41
2023-08-29T14:11:51.530Z,95988.88
2023-08-29T14:14:21.268Z,95991.19
2023-08-29T14:16:49.700Z,95995.34
2023-08-29T14:19:21.760Z,95993.16
2023-08-29T14:21:50.335Z,95991.63
2023-08-29T14:24:18.620Z,95995.44
2023-08-29T14:26:47.257Z,95998.16
2023-08-29T14:29:15.619Z,96000.59
2023-08-29T14:31:45.265Z,95999.06
2023-08-29T14:34:13.889Z,95999.72
2023-08-29T14:36:42.166Z,96001.09
2023-08-29T14:39:10.354Z,95998.22
2023-08-29T14:41:38.568Z,96000.34
2023-08-29T14:44:07.108Z,96006.13
2023-08-29T14:46:46.026Z,96006.16
2023-08-29T14:49:16.415Z,96007.13
2023-08-29T14:51:44.683Z,96008.00
2023-08-29T14:54:12.967Z,96007.59
2023-08-29T14:56:41.208Z,96005.09
2023-08-29T14:59:09.607Z,96006.44
2023-08-29T15:01:38.947Z,96013.78
2023-08-29T15:04:08.572Z,96014.84
2023-08-29T15:06:37.082Z,96008.19
2023-08-29T15:09:07.898Z,96013.19
2023-08-29T15:11:37.300Z,96006.03
2023-08-29T15:14:06.698Z,96003.81
2023-08-29T15:16:36.319Z,96004.47
2023-08-29T15:19:04.628Z,96004.31
2023-08-29T15:21:34.265Z,95996.09
2023-08-29T15:24:02.451Z,96006.44
2023-08-29T15:26:30.672Z,96004.47
2023-08-29T15:28:59.081Z,95999.78
2023-08-29T15:31:26.396Z,95992.81
2023-08-29T15:34:10.329Z,95990.31
2023-08-29T15:36:40.011Z,95995.44
2023-08-29T15:39:08.859Z,96000.78
2023-08-29T15:41:52.993Z,96000.81
2023-08-29T15:44:21.238Z,96000.25
2023-08-29T15:46:52.526Z,96005.13
2023-08-29T15:49:20.719Z,96001.63
2023-08-29T15:51:50.344Z,95996.47
2023-08-29T15:54:18.622Z,96000.16
2023-08-29T15:56:46.997Z,96002.16
2023-08-29T15:59:15.278Z,96000.84
2023-08-29T16:01:43.560Z,96004.66
2023-08-29T16:04:11.755Z,96006.84
2023-08-29T16:06:40.095Z,96014.38
2023-08-29T16:09:09.861Z,96020.19
2023-08-29T16:11:38.127Z,96008.50
2023-08-29T16:14:07.559Z,96015.22
2023-08-29T16:16:36.278Z,96013.75
2023-08-29T16:19:04.487Z,96014.56
2023-08-29T16:21:32.778Z,96019.91
2023-08-29T16:24:04.052Z,96022.56
2023-08-29T16:26:33.887Z,96016.50
2023-08-29T16:29:22.410Z,96021.03
2023-08-29T16:31:50.758Z,96020.19
2023-08-29T16:34:18.884Z,96030.88
2023-08-29T16:36:47.136Z,96034.38
2023-08-29T16:39:15.662Z,96031.53
2023-08-29T16:41:45.375Z,96032.53
2023-08-29T16:44:13.625Z,96041.56
2023-08-29T16:46:41.901Z,96038.22
2023-08-29T16:49:10.213Z,96034.91
2023-08-29T16:51:38.542Z,96039.06
2023-08-29T16:54:07.418Z,96040.44
2023-08-29T16:56:35.761Z,96037.75
2023-08-29T16:59:05.369Z,96033.25
2023-08-29T17:01:33.677Z,96031.56
2023-08-29T17:04:01.997Z,96035.25
2023-08-29T17:06:30.252Z,96042.59
2023-08-29T17:08:58.472Z,96042.97
2023-08-29T17:11:26.792Z,96040.09
2023-08-29T17:13:55.380Z,96038.63
2023-08-29T17:16:25.144Z,96037.13
2023-08-29T17:18:53.357Z,96034.81
2023-08-29T17:21:38.144Z,96042.34
2023-08-29T17:24:07.100Z,96045.34
2023-08-29T17:26:35.612Z,96037.50
2023-08-29T17:29:03.825Z,96045.41
2023-08-29T17:31:34.608Z,96043.72
2023-08-29T17:34:03.409Z,96043.06
2023-08-29T17:36:31.601Z,96046.03
2023-08-29T17:38:59.940Z,96056.09
2023-08-29T17:41:29.483Z,96049.34
2023-08-29T17:43:57.758Z,96057.66
2023-08-29T17:46:26.049Z,96048.16
2023-08-29T17:48:55.801Z,96056.19
2023-08-29T17:51:24.115Z,96058.69
2023-08-29T17:53:52.424Z,96059.38
2023-08-29T17:56:20.640Z,96053.53
2023-08-29T17:58:52.068Z,96057.91
2023-08-29T18:01:20.612Z,96051.44
2023-08-29T18:03:48.888Z,96048.59
2023-08-29T18:06:25.172Z,96048.25
2023-08-29T18:09:10.754Z,96052.25
2023-08-29T18:11:39.016Z,96056.06
2023-08-29T18:14:07.453Z,96048.25
2023-08-29T18:16:36.306Z,96055.91
2023-08-29T18:19:04.624Z,96048.09
2023-08-29T18:21:34.393Z,96052.41
2023-08-29T18:24:02.665Z,96057.06
2023-08-29T18:26:32.144Z,96059.25
2023-08-29T18:29:00.455Z,96065.56
2023-08-29T18:31:29.236Z,96058.75
2023-08-29T18:33:57.767Z,96063.75
2023-08-29T18:36:26.418Z,96063.09
2023-08-29T18:38:57.047Z,96062.78
2023-08-29T18:41:25.395Z,96064.94
2023-08-29T18:43:54.280Z,96072.09
2023-08-29T18:46:42.502Z,96064.44
2023-08-29T18:49:10.790Z,96073.94
2023-08-29T18:51:39.068Z,96079.91
2023-08-29T18:54:28.827Z,96085.41
2023-08-29T18:56:57.062Z,96070.94
2023-08-29T18:59:25.390Z,96087.44
2023-08-29T19:01:53.760Z,96088.56
2023-08-29T19:04:22.088Z,96085.56
2023-08-29T19:06:50.290Z,96093.75
2023-08-29T19:09:18.481Z,96097.59
2023-08-29T19:11:48.735Z,96093.91
2023-08-29T19:14:16.916Z,96093.22
2023-08-29T19:16:45.284Z,96094.41
2023-08-29T19:19:13.821Z,96094.56
2023-08-29T19:21:42.117Z,96093.06
2023-08-29T19:24:10.988Z,96088.91
2023-08-29T19:26:40.078Z,96094.38
2023-08-29T19:29:10.263Z,96096.22
2023-08-29T19:31:53.429Z,96091.72
2023-08-29T19:34:21.620Z,96094.56
2023-08-29T19:36:49.892Z,96093.72
2023-08-29T19:39:18.776Z,96102.56
2023-08-29T19:41:47.037Z,96101.06
2023-08-29T19:44:18.970Z,96100.88
2023-08-29T19:46:47.864Z,96097.19
2023-08-29T19:49:16.156Z,96096.03
2023-08-29T19:51:44.744Z,96097.38
2023-08-29T19:54:16.113Z,96093.56
2023-08-29T19:56:44.327Z,96099.72
2023-08-29T19:59:12.589Z,96087.22
2023-08-29T20:01:44.909Z,96078.41
2023-08-29T20:04:13.127Z,96087.56
2023-08-29T20:06:43.382Z,96083.06
2023-08-29T20:09:12.685Z,96075.06
2023-08-29T20:11:41.038Z,96082.22
2023-08-29T20:14:09.306Z,96073.22
2023-08-29T20:16:37.668Z,96084.22
2023-08-29T20:19:07.732Z,96076.25
2023-08-29T20:21:56.050Z,96064.25
2023-08-29T20:24:24.459Z,96070.06
2023-08-29T20:26:53.121Z,96075.56
2023-08-29T20:29:37.107Z,96075.56
2023-08-29T20:32:05.936Z,96067.88
2023-08-29T20:34:39.172Z,96064.59
2023-08-29T20:37:07.377Z,96071.72
2023-08-29T20:39:36.069Z,96077.56
2023-08-29T20:42:04.530Z,96063.72
2023-08-29T20:44:33.138Z,96062.91
2023-08-29T20:47:01.384Z,96068.88
2023-08-29T20:49:29.699Z,96062.56
2023-08-29T20:51:59.378Z,96067.56
2023-08-29T20:54:27.625Z,96066.56
2023-08-29T20:56:55.850Z,96066.06
2023-08-29T20:59:24.080Z,96066.22
2023-08-29T21:01:52.193Z,96064.56
2023-08-29T21:04:20.811Z,96069.72
2023-08-29T21:06:51.696Z,96053.56
2023-08-29T21:09:22.204Z,96058.22
2023-08-29T21:11:50.567Z,96059.56
2023-08-29T21:14:18.889Z,96052.91
2023-08-29T21:16:48.232Z,96054.56
2023-08-29T21:19:17.072Z,96054.88
2023-08-29T21:21:45.316Z,96050.25
2023-08-29T21:24:13.581Z,96056.56
2023-08-29T21:26:43.150Z,96058.06
2023-08-29T21:29:45.047Z,96053.41
2023-08-29T21:32:13.279Z,96053.22
2023-08-29T21:34:41.518Z,96058.22
2023-08-29T21:37:10.077Z,96061.69
2023-08-29T21:39:38.542Z,96056.53
2023-08-29T21:42:08.391Z,96051.06
2023-08-29T21:44:36.696Z,96047.56
2023-08-29T21:47:25.158Z,96044.25
2023-08-29T21:49:53.253Z,96042.72
2023-08-29T21:52:21.517Z,96040.34
2023-08-29T21:54:49.659Z,96036.88
2023-08-29T21:57:39.195Z,96036.88
2023-08-29T22:00:10.138Z,96032.03
2023-08-29T22:02:39.004Z,96030.03
2023-08-29T22:05:07.680Z,96023.22
2023-08-29T22:07:36.354Z,96017.22
2023-08-29T22:10:04.549Z,96014.91
2023-08-29T22:12:32.709Z,96008.72
2023-08-29T22:15:02.338Z,96018.88
2023-08-29T22:17:30.585Z,96012.06
2023-08-29T22:19:59.168Z,96016.69
2023-08-29T22:22:27.376Z,96011.88
2023-08-29T22:24:55.563Z,96011.03
2023-08-29T22:27:38.957Z,96013.50
2023-08-29T22:30:10.924Z,96010.06
2023-08-29T22:32:42.345Z,96003.72
2023-08-29T22:35:11.072Z,96011.72
2023-08-29T22:37:39.215Z,96015.53
2023-08-29T22:40:08.939Z,96009.34
2023-08-29T22:42:37.302Z,96005.53
2023-08-29T22:45:06.462Z,96012.34
2023-08-29T22:47:36.082Z,96003.69
2023-08-29T22:50:04.442Z,96005.84
2023-08-29T22:52:33.897Z,96006.00
2023-08-29T22:55:20.946Z,96005.00
2023-08-29T22:57:51.571Z,96013.47
2023-08-29T23:00:21.599Z,96007.50
2023-08-29T23:02:51.336Z,96005.31
2023-08-29T23:05:19.968Z,96012.75
2023-08-29T23:07:48.174Z,96016.91
2023-08-29T23:10:18.801Z,96021.56
2023-08-29T23:12:47.055Z,96017.06
2023-08-29T23:15:16.322Z,96014.41
2023-08-29T23:18:00.872Z,96005.41
2023-08-29T23:20:29.191Z,96006.75
2023-08-29T23:22:57.517Z,95997.56
2023-08-29T23:25:25.840Z,96014.53
2023-08-29T23:27:53.966Z,96006.50
2023-08-29T23:30:22.154Z,96011.53
2023-08-29T23:33:06.547Z,96008.19
2023-08-29T23:35:34.831Z,96014.66
2023-08-29T23:38:03.118Z,96007.66
2023-08-29T23:40:31.943Z,96007.97
2023-08-29T23:43:00.141Z,96006.97
2023-08-29T23:45:28.376Z,96003.81
2023-08-29T23:47:56.713Z,96009.13
2023-08-29T23:50:26.416Z,96005.47
2023-08-29T23:52:54.654Z,95999.97
2023-08-29T23:55:23.954Z,95996.31
2023-08-29T23:57:52.957Z,96002.78
